createdAt,value
2018-08-27T00:00:38.007Z,2.37
2018-08-27T00:03:05.743Z,2.87
2018-08-27T00:05:34.116Z,2.30
2018-08-27T00:08:01.808Z,2.47
2018-08-27T00:10:29.436Z,2.20
2018-08-27T00:12:57.024Z,2.47
2018-08-27T00:15:24.681Z,2.10
2018-08-27T00:17:52.471Z,2.17
2018-08-27T00:20:20.000Z,2.50
2018-08-27T00:22:47.836Z,2.33
2018-08-27T00:25:15.776Z,2.40
2018-08-27T00:27:43.777Z,2.10
2018-08-27T00:30:11.383Z,2.20
2018-08-27T00:32:39.064Z,2.10
2018-08-27T00:35:06.743Z,2.20
2018-08-27T00:37:35.091Z,2.60
2018-08-27T00:40:02.711Z,2.13
2018-08-27T00:42:30.384Z,1.90
2018-08-27T00:44:57.968Z,2.50
2018-08-27T00:47:25.700Z,2.50
2018-08-27T00:49:53.555Z,2.53
2018-08-27T00:52:21.277Z,2.40
2018-08-27T00:54:49.051Z,2.00
2018-08-27T00:57:17.591Z,2.40
2018-08-27T00:59:45.891Z,2.83
2018-08-27T01:02:13.607Z,2.50
2018-08-27T01:04:41.281Z,2.47
2018-08-27T01:07:08.951Z,2.57
2018-08-27T01:09:36.844Z,2.40
2018-08-27T01:12:04.534Z,2.60
2018-08-27T01:14:32.246Z,2.50
2018-08-27T01:16:59.857Z,2.60
2018-08-27T01:19:28.215Z,2.40
2018-08-27T01:21:55.860Z,2.50
2018-08-27T01:24:23.556Z,2.30
2018-08-27T01:26:51.188Z,2.30
2018-08-27T01:29:19.461Z,2.50
2018-08-27T01:31:52.695Z,2.90
2018-08-27T01:34:21.055Z,3.17
2018-08-27T01:36:48.997Z,2.50
2018-08-27T01:39:16.556Z,2.73
2018-08-27T01:41:45.013Z,2.50
2018-08-27T01:44:12.987Z,2.73
2018-08-27T01:46:40.615Z,2.30
2018-08-27T01:49:08.405Z,2.50
2018-08-27T01:51:36.075Z,2.40
2018-08-27T01:54:03.715Z,2.60
2018-08-27T01:56:31.355Z,2.33
2018-08-27T01:58:58.984Z,2.67
2018-08-27T02:01:26.879Z,2.50
2018-08-27T02:03:54.469Z,2.60
2018-08-27T02:06:22.254Z,2.13
2018-08-27T02:08:49.889Z,2.50
2018-08-27T02:11:17.490Z,2.63
2018-08-27T02:13:45.764Z,2.30
2018-08-27T02:16:13.570Z,2.70
2018-08-27T02:18:41.228Z,2.67
2018-08-27T02:21:08.891Z,2.30
2018-08-27T02:23:36.555Z,2.80
2018-08-27T02:26:04.335Z,2.77
2018-08-27T02:28:31.956Z,2.93
2018-08-27T02:31:00.685Z,2.50
2018-08-27T02:33:28.554Z,2.97
2018-08-27T02:35:56.340Z,2.40
2018-08-27T02:38:24.149Z,2.63
2018-08-27T02:40:51.907Z,3.00
2018-08-27T02:43:19.457Z,2.90
2018-08-27T02:45:47.100Z,3.00
2018-08-27T02:48:14.732Z,3.50
2018-08-27T02:50:42.680Z,3.03
2018-08-27T02:53:10.209Z,3.20
2018-08-27T02:55:37.783Z,3.10
2018-08-27T02:58:05.397Z,3.07
2018-08-27T03:00:33.095Z,2.90
2018-08-27T03:03:00.880Z,3.10
2018-08-27T03:05:28.569Z,3.13
2018-08-27T03:07:56.430Z,3.57
2018-08-27T03:10:23.976Z,2.47
2018-08-27T03:12:51.507Z,2.77
2018-08-27T03:15:19.300Z,2.90
2018-08-27T03:17:47.035Z,3.00
2018-08-27T03:20:15.344Z,2.80
2018-08-27T03:22:43.013Z,2.97
2018-08-27T03:25:10.926Z,2.30
2018-08-27T03:27:38.525Z,2.80
2018-08-27T03:30:07.171Z,3.10
2018-08-27T03:32:34.743Z,2.87
2018-08-27T03:35:02.475Z,3.40
2018-08-27T03:37:30.219Z,3.07
2018-08-27T03:39:57.852Z,2.60
2018-08-27T03:42:25.400Z,2.70
2018-08-27T03:44:53.139Z,2.50
2018-08-27T03:47:20.888Z,2.70
2018-08-27T03:49:48.521Z,2.70
2018-08-27T03:52:16.136Z,2.70
2018-08-27T03:54:44.319Z,2.20
2018-08-27T03:57:11.979Z,2.50
2018-08-27T03:59:40.439Z,2.90
2018-08-27T04:02:08.612Z,2.60
2018-08-27T04:04:36.359Z,2.73
2018-08-27T04:07:03.964Z,2.53
2018-08-27T04:09:31.727Z,2.70
2018-08-27T04:11:59.413Z,2.70
2018-08-27T04:14:26.936Z,2.50
2018-08-27T04:16:54.611Z,2.37
2018-08-27T04:19:22.165Z,2.30
2018-08-27T04:21:50.380Z,2.67
2018-08-27T04:24:18.506Z,2.33
2018-08-27T04:26:46.253Z,2.07
2018-08-27T04:29:13.931Z,2.77
2018-08-27T04:31:41.583Z,2.70
2018-08-27T04:34:09.568Z,2.73
2018-08-27T04:36:37.206Z,2.30
2018-08-27T04:39:06.984Z,2.40
2018-08-27T04:41:34.776Z,2.80
2018-08-27T04:44:03.043Z,2.20
2018-08-27T04:46:31.087Z,2.90
2018-08-27T04:48:58.825Z,2.90
2018-08-27T04:51:26.436Z,3.27
2018-08-27T04:53:53.991Z,2.90
2018-08-27T04:56:22.163Z,2.50
2018-08-27T04:58:50.252Z,2.33
2018-08-27T05:01:17.856Z,2.40
2018-08-27T05:03:45.632Z,2.70
2018-08-27T05:06:13.388Z,2.67
2018-08-27T05:08:41.053Z,2.90
2018-08-27T05:11:09.144Z,2.60
2018-08-27T05:13:36.791Z,2.50
2018-08-27T05:16:04.365Z,2.83
2018-08-27T05:18:32.072Z,2.90
2018-08-27T05:20:59.805Z,2.60
2018-08-27T05:23:27.519Z,2.53
2018-08-27T05:25:55.860Z,2.80
2018-08-27T05:28:23.623Z,2.57
2018-08-27T05:30:51.314Z,2.60
2018-08-27T05:33:19.132Z,3.40
2018-08-27T05:35:46.744Z,2.60
2018-08-27T05:38:14.495Z,2.10
2018-08-27T05:40:42.413Z,2.10
2018-08-27T05:43:10.095Z,2.73
2018-08-27T05:45:37.837Z,2.40
2018-08-27T05:48:05.651Z,2.30
2018-08-27T05:50:33.388Z,2.50
2018-08-27T05:53:01.036Z,2.67
2018-08-27T05:55:29.263Z,2.37
2018-08-27T05:57:57.809Z,2.70
2018-08-27T06:00:25.560Z,2.03
2018-08-27T06:02:53.160Z,2.70
2018-08-27T06:05:20.771Z,2.33
2018-08-27T06:07:48.708Z,2.90
2018-08-27T06:10:16.303Z,2.27
2018-08-27T06:12:43.988Z,2.50
2018-08-27T06:15:11.688Z,2.70
2018-08-27T06:17:39.239Z,2.40
2018-08-27T06:20:07.420Z,1.93
2018-08-27T06:22:35.167Z,2.50
2018-08-27T06:25:02.890Z,2.60
2018-08-27T06:27:30.588Z,2.10
2018-08-27T06:29:58.303Z,2.50
2018-08-27T06:32:25.931Z,2.63
2018-08-27T06:34:53.611Z,2.67
2018-08-27T06:37:21.280Z,2.60
2018-08-27T06:39:48.800Z,2.73
2018-08-27T06:42:16.608Z,3.23
2018-08-27T06:44:44.617Z,3.30
2018-08-27T06:47:12.363Z,3.70
2018-08-27T06:49:39.887Z,3.20
2018-08-27T06:52:07.788Z,3.53
2018-08-27T06:54:35.527Z,4.53
2018-08-27T06:57:03.223Z,4.03
2018-08-27T06:59:32.188Z,4.13
2018-08-27T07:01:59.987Z,4.63
2018-08-27T07:04:27.629Z,3.80
2018-08-27T07:06:55.966Z,4.20
2018-08-27T07:09:23.552Z,3.97
2018-08-27T07:11:51.352Z,4.03
2018-08-27T07:14:19.048Z,3.87
2018-08-27T07:16:46.593Z,3.33
2018-08-27T07:19:14.363Z,3.30
2018-08-27T07:21:42.772Z,3.40
2018-08-27T07:24:10.392Z,3.50
2018-08-27T07:26:37.976Z,3.17
2018-08-27T07:29:05.756Z,2.27
2018-08-27T07:31:33.404Z,3.17
2018-08-27T07:34:01.183Z,2.27
2018-08-27T07:36:29.043Z,3.00
2018-08-27T07:38:56.669Z,2.57
2018-08-27T07:41:24.234Z,2.33
2018-08-27T07:43:51.931Z,2.63
2018-08-27T07:46:19.677Z,2.50
2018-08-27T07:48:47.351Z,2.70
2018-08-27T07:51:15.109Z,2.30
2018-08-27T07:53:42.964Z,2.57
2018-08-27T07:56:10.792Z,2.13
2018-08-27T07:58:38.617Z,1.90
2018-08-27T08:01:06.312Z,1.63
2018-08-27T08:03:34.004Z,1.30
2018-08-27T08:06:01.744Z,1.70
2018-08-27T08:08:29.588Z,1.63
2018-08-27T08:10:57.338Z,1.40
2018-08-27T08:13:24.998Z,1.40
2018-08-27T08:15:52.650Z,1.53
2018-08-27T08:18:20.265Z,1.50
2018-08-27T08:20:48.603Z,1.73
2018-08-27T08:23:16.859Z,1.43
2018-08-27T08:25:44.996Z,1.50
2018-08-27T08:28:12.712Z,1.77
2018-08-27T08:30:40.776Z,1.50
2018-08-27T08:33:08.722Z,1.70
2018-08-27T08:35:36.320Z,1.97
2018-08-27T08:38:04.204Z,1.43
2018-08-27T08:40:31.873Z,1.63
2018-08-27T08:42:59.633Z,1.37
2018-08-27T08:45:27.361Z,1.70
2018-08-27T08:47:55.199Z,1.37
2018-08-27T08:50:22.737Z,1.50
2018-08-27T08:52:51.071Z,1.60
2018-08-27T08:55:18.678Z,1.80
2018-08-27T08:57:46.392Z,2.23
2018-08-27T09:00:14.628Z,1.30
2018-08-27T09:02:42.312Z,1.67
2018-08-27T09:05:10.688Z,1.53
2018-08-27T09:07:38.287Z,2.07
2018-08-27T09:10:06.132Z,1.73
2018-08-27T09:12:33.724Z,1.60
2018-08-27T09:15:01.251Z,1.50
2018-08-27T09:17:30.108Z,1.30
2018-08-27T09:19:57.672Z,1.60
2018-08-27T09:22:25.259Z,1.80
2018-08-27T09:24:52.952Z,1.43
2018-08-27T09:27:20.651Z,2.03
2018-08-27T09:29:48.779Z,1.50
2018-08-27T09:32:16.577Z,1.83
2018-08-27T09:34:44.404Z,1.80
2018-08-27T09:37:12.297Z,2.37
2018-08-27T09:39:39.972Z,1.93
2018-08-27T09:42:07.988Z,2.00
2018-08-27T09:44:36.164Z,2.00
2018-08-27T09:47:03.984Z,1.93
2018-08-27T09:49:32.369Z,2.37
2018-08-27T09:52:00.104Z,2.20
2018-08-27T09:54:27.898Z,1.50
2018-08-27T09:56:56.319Z,1.70
2018-08-27T09:59:23.934Z,1.60
2018-08-27T10:01:59.035Z,2.00
2018-08-27T10:04:26.626Z,1.80
2018-08-27T10:06:54.485Z,1.60
2018-08-27T10:09:22.232Z,1.83
2018-08-27T10:11:49.775Z,1.63
2018-08-27T10:14:17.427Z,1.83
2018-08-27T10:16:45.036Z,2.40
2018-08-27T10:19:12.574Z,2.20
2018-08-27T10:21:40.427Z,2.10
2018-08-27T10:24:08.056Z,2.30
2018-08-27T10:26:36.036Z,2.60
2018-08-27T10:29:04.920Z,2.23
2018-08-27T10:31:32.960Z,1.97
2018-08-27T10:34:00.912Z,1.97
2018-08-27T10:36:28.644Z,2.20
2018-08-27T10:38:56.360Z,2.10
2018-08-27T10:41:24.027Z,2.17
2018-08-27T10:43:51.555Z,2.30
2018-08-27T10:46:19.353Z,1.90
2018-08-27T10:48:46.980Z,2.13
2018-08-27T10:51:14.784Z,2.57
2018-08-27T10:53:42.315Z,2.10
2018-08-27T10:56:10.245Z,1.70
2018-08-27T10:58:37.946Z,2.40
2018-08-27T11:01:06.363Z,2.30
2018-08-27T11:03:34.240Z,2.50
2018-08-27T11:06:02.013Z,3.10
2018-08-27T11:08:30.256Z,2.33
2018-08-27T11:10:57.882Z,1.90
2018-08-27T11:13:25.487Z,2.50
2018-08-27T11:15:53.342Z,2.40
2018-08-27T11:18:20.980Z,2.33
2018-08-27T11:20:48.574Z,2.50
2018-08-27T11:23:16.190Z,2.40
2018-08-27T11:25:43.780Z,2.50
2018-08-27T11:28:11.539Z,2.30
2018-08-27T11:30:39.232Z,2.20
2018-08-27T11:33:06.885Z,2.07
2018-08-27T11:35:34.617Z,2.20
2018-08-27T11:38:02.439Z,2.07
2018-08-27T11:40:30.032Z,2.20
2018-08-27T11:42:57.785Z,2.23
2018-08-27T11:45:25.361Z,2.10
2018-08-27T11:47:53.516Z,2.40
2018-08-27T11:50:21.355Z,2.00
2018-08-27T11:52:49.042Z,2.20
2018-08-27T11:55:16.707Z,1.97
2018-08-27T11:57:44.318Z,2.10
2018-08-27T12:00:17.696Z,2.00
2018-08-27T12:02:45.255Z,2.17
2018-08-27T12:05:12.912Z,2.10
2018-08-27T12:07:40.484Z,1.80
2018-08-27T12:10:08.692Z,2.30
2018-08-27T12:12:36.245Z,2.20
2018-08-27T12:15:03.948Z,2.10
2018-08-27T12:17:31.675Z,1.93
2018-08-27T12:19:59.376Z,1.70
2018-08-27T12:22:27.139Z,1.87
2018-08-27T12:24:54.792Z,2.00
2018-08-27T12:27:22.948Z,1.97
2018-08-27T12:29:50.692Z,2.07
2018-08-27T12:32:18.276Z,2.03
2018-08-27T12:34:45.855Z,2.33
2018-08-27T12:37:13.684Z,2.10
2018-08-27T12:39:41.332Z,2.07
2018-08-27T12:42:09.068Z,1.70
2018-08-27T12:44:37.215Z,2.17
2018-08-27T12:47:05.364Z,2.17
2018-08-27T12:49:33.098Z,2.23
2018-08-27T12:52:00.716Z,2.00
2018-08-27T12:54:28.664Z,1.83
2018-08-27T12:56:57.170Z,1.90
2018-08-27T12:59:24.859Z,1.70
2018-08-27T13:01:52.431Z,2.33
2018-08-27T13:04:20.371Z,1.80
2018-08-27T13:06:48.235Z,2.23
2018-08-27T13:09:15.968Z,1.60
2018-08-27T13:11:43.633Z,1.70
2018-08-27T13:14:11.396Z,2.20
2018-08-27T13:16:39.183Z,2.17
2018-08-27T13:19:07.157Z,2.20
2018-08-27T13:21:34.728Z,2.03
2018-08-27T13:24:02.400Z,1.80
2018-08-27T13:26:30.047Z,2.40
2018-08-27T13:28:57.828Z,2.80
2018-08-27T13:31:25.519Z,1.90
2018-08-27T13:33:53.119Z,2.00
2018-08-27T13:36:21.006Z,2.10
2018-08-27T13:38:48.556Z,2.10
2018-08-27T13:41:16.132Z,2.10
2018-08-27T13:43:43.764Z,2.10
2018-08-27T13:46:11.346Z,2.20
2018-08-27T13:48:38.977Z,2.13
2018-08-27T13:51:06.559Z,2.50
2018-08-27T13:53:34.189Z,2.20
2018-08-27T13:56:02.568Z,2.17
2018-08-27T13:58:30.372Z,2.33
2018-08-27T14:00:57.907Z,2.10
2018-08-27T14:03:25.556Z,2.10
2018-08-27T14:05:53.317Z,2.10
2018-08-27T14:08:21.000Z,2.33
2018-08-27T14:10:48.835Z,2.43
2018-08-27T14:13:16.452Z,2.27
2018-08-27T14:15:44.074Z,2.60
2018-08-27T14:18:11.585Z,2.53
2018-08-27T14:20:39.444Z,2.07
2018-08-27T14:23:07.901Z,2.20
2018-08-27T14:25:35.513Z,2.60
2018-08-27T14:28:03.082Z,2.20
2018-08-27T14:30:30.725Z,2.40
2018-08-27T14:32:58.553Z,2.30
2018-08-27T14:35:26.409Z,2.30
2018-08-27T14:37:54.228Z,2.00
2018-08-27T14:40:22.079Z,2.60
2018-08-27T14:42:49.608Z,2.40
2018-08-27T14:45:17.215Z,2.90
2018-08-27T14:47:44.953Z,2.43
2018-08-27T14:50:12.932Z,2.30
2018-08-27T14:52:40.724Z,2.30
2018-08-27T14:55:08.576Z,2.30
2018-08-27T14:57:36.124Z,2.30
2018-08-27T15:00:04.168Z,2.40
2018-08-27T15:02:32.154Z,2.40
2018-08-27T15:04:59.860Z,2.43
2018-08-27T15:07:27.692Z,2.00
2018-08-27T15:09:55.395Z,2.30
2018-08-27T15:12:24.128Z,2.33
2018-08-27T15:14:52.524Z,2.00
2018-08-27T15:17:20.177Z,2.10
2018-08-27T15:19:48.783Z,2.17
2018-08-27T15:22:16.826Z,2.07
2018-08-27T15:24:44.592Z,2.20
2018-08-27T15:27:12.417Z,1.77
2018-08-27T15:29:40.112Z,2.20
2018-08-27T15:32:07.800Z,2.00
2018-08-27T15:34:36.009Z,2.10
2018-08-27T15:37:03.976Z,2.07
2018-08-27T15:39:32.349Z,1.70
2018-08-27T15:42:00.078Z,1.87
2018-08-27T15:44:27.720Z,2.20
2018-08-27T15:46:55.907Z,1.87
2018-08-27T15:49:24.013Z,1.80
2018-08-27T15:51:51.596Z,1.73
2018-08-27T15:54:20.104Z,1.50
2018-08-27T15:56:48.884Z,2.00
2018-08-27T15:59:16.604Z,1.70
2018-08-27T16:01:44.319Z,1.53
2018-08-27T16:04:12.096Z,1.70
2018-08-27T16:06:39.924Z,1.87
2018-08-27T16:09:07.746Z,1.80
2018-08-27T16:11:36.359Z,1.87
2018-08-27T16:14:04.102Z,1.70
2018-08-27T16:16:31.937Z,1.80
2018-08-27T16:18:59.583Z,3.30
2018-08-27T16:21:27.963Z,1.73
2018-08-27T16:23:55.627Z,1.77
2018-08-27T16:26:23.296Z,1.70
2018-08-27T16:28:50.879Z,1.40
2018-08-27T16:31:19.287Z,1.60
2018-08-27T16:33:47.185Z,2.00
2018-08-27T16:36:15.363Z,1.83
2018-08-27T16:38:43.088Z,1.70
2018-08-27T16:41:11.477Z,1.90
2018-08-27T16:43:39.146Z,1.60
2018-08-27T16:46:07.135Z,1.90
2018-08-27T16:48:34.825Z,2.23
2018-08-27T16:51:03.357Z,2.10
2018-08-27T16:53:31.147Z,1.80
2018-08-27T16:55:58.924Z,2.03
2018-08-27T16:58:26.695Z,1.80
2018-08-27T17:00:54.355Z,1.70
2018-08-27T17:03:22.075Z,1.60
2018-08-27T17:05:49.692Z,1.63
2018-08-27T17:08:17.229Z,1.90
2018-08-27T17:10:44.919Z,1.80
2018-08-27T17:13:12.776Z,2.27
2018-08-27T17:15:40.436Z,1.70
2018-08-27T17:18:08.228Z,1.87
2018-08-27T17:20:35.980Z,1.70
2018-08-27T17:23:03.700Z,1.80
2018-08-27T17:25:31.444Z,1.90
2018-08-27T17:27:59.280Z,2.27
2018-08-27T17:30:26.908Z,2.37
2018-08-27T17:32:54.752Z,2.00
2018-08-27T17:35:22.444Z,2.10
2018-08-27T17:37:50.060Z,1.93
2018-08-27T17:40:17.596Z,2.30
2018-08-27T17:42:45.876Z,2.00
2018-08-27T17:45:13.678Z,2.10
2018-08-27T17:47:41.132Z,1.70
2018-08-27T17:50:09.037Z,1.70
2018-08-27T17:52:37.100Z,2.00
2018-08-27T17:55:05.028Z,2.30
2018-08-27T17:57:32.791Z,2.30
2018-08-27T18:00:00.383Z,1.87
2018-08-27T18:02:28.243Z,2.03
2018-08-27T18:04:56.054Z,2.50
2018-08-27T18:07:23.704Z,2.20
2018-08-27T18:09:52.076Z,2.60
2018-08-27T18:12:19.767Z,2.47
2018-08-27T18:14:47.556Z,2.33
2018-08-27T18:17:15.285Z,2.30
2018-08-27T18:19:43.647Z,2.00
2018-08-27T18:22:11.898Z,2.20
2018-08-27T18:24:39.589Z,2.20
2018-08-27T18:27:07.388Z,2.43
2018-08-27T18:29:35.101Z,2.30
2018-08-27T18:32:03.081Z,2.30
2018-08-27T18:34:31.236Z,2.83
2018-08-27T18:36:59.086Z,2.23
2018-08-27T18:39:27.102Z,2.57
2018-08-27T18:41:55.882Z,2.50
2018-08-27T18:44:24.359Z,2.47
2018-08-27T18:46:52.178Z,2.67
2018-08-27T18:49:20.614Z,2.77
2018-08-27T18:51:48.501Z,2.60
2018-08-27T18:54:16.458Z,2.57
2018-08-27T18:56:45.192Z,2.87
2018-08-27T18:59:13.274Z,3.00
2018-08-27T19:01:43.368Z,2.80
2018-08-27T19:04:11.934Z,2.57
2018-08-27T19:06:40.144Z,2.60
2018-08-27T19:09:09.007Z,2.90
2018-08-27T19:11:37.516Z,2.20
2018-08-27T19:14:06.622Z,2.70
2018-08-27T19:16:35.080Z,2.27
2018-08-27T19:19:03.973Z,2.53
2018-08-27T19:21:32.048Z,2.67
2018-08-27T19:24:00.253Z,2.80
2018-08-27T19:26:28.320Z,2.73
2018-08-27T19:28:56.403Z,2.33
2018-08-27T19:31:24.862Z,2.57
2018-08-27T19:33:52.868Z,2.63
2018-08-27T19:36:22.005Z,2.63
2018-08-27T19:38:50.524Z,3.13
2018-08-27T19:41:18.715Z,2.50
2018-08-27T19:43:46.881Z,2.57
2018-08-27T19:46:14.863Z,2.60
2018-08-27T19:48:43.249Z,2.60
2018-08-27T19:51:11.621Z,2.37
2018-08-27T19:53:39.804Z,2.80
2018-08-27T19:56:07.677Z,2.70
2018-08-27T19:58:35.416Z,2.87
2018-08-27T20:01:03.076Z,2.70
2018-08-27T20:03:30.956Z,2.90
2018-08-27T20:05:58.618Z,2.73
2018-08-27T20:08:26.259Z,2.80
2018-08-27T20:10:53.848Z,2.50
2018-08-27T20:13:21.491Z,2.70
2018-08-27T20:15:50.006Z,2.37
2018-08-27T20:18:17.543Z,2.70
2018-08-27T20:20:45.247Z,2.90
2018-08-27T20:23:13.652Z,2.97
2018-08-27T20:25:41.387Z,3.10
2018-08-27T20:28:08.916Z,3.03
2018-08-27T20:30:36.536Z,3.30
2018-08-27T20:33:04.886Z,3.10
2018-08-27T20:35:32.484Z,2.83
2018-08-27T20:38:00.007Z,2.83
2018-08-27T20:40:27.773Z,3.20
2018-08-27T20:42:55.559Z,2.90
2018-08-27T20:45:23.200Z,3.33
2018-08-27T20:47:51.711Z,3.13
2018-08-27T20:50:19.404Z,2.90
2018-08-27T20:52:47.113Z,2.87
2018-08-27T20:55:14.821Z,2.83
2018-08-27T20:57:42.600Z,4.00
2018-08-27T21:00:10.492Z,3.10
2018-08-27T21:02:38.168Z,3.20
2018-08-27T21:05:06.445Z,3.10
2018-08-27T21:07:35.130Z,2.80
2018-08-27T21:10:03.526Z,3.00
2018-08-27T21:12:31.244Z,3.20
2018-08-27T21:15:18.049Z,3.20
2018-08-27T21:17:50.120Z,3.20
2018-08-27T21:20:18.487Z,3.03
2018-08-27T21:22:46.183Z,3.43
2018-08-27T21:25:14.643Z,3.77
2018-08-27T21:27:43.240Z,3.20
2018-08-27T21:30:13.364Z,3.23
2018-08-27T21:32:42.447Z,3.17
2018-08-27T21:35:10.236Z,3.30
2018-08-27T21:37:37.935Z,3.30
2018-08-27T21:40:05.743Z,2.60
2018-08-27T21:42:33.729Z,3.13
2018-08-27T21:45:01.727Z,3.40
2018-08-27T21:47:29.680Z,2.80
2018-08-27T21:49:57.338Z,2.93
2018-08-27T21:52:24.922Z,3.23
2018-08-27T21:54:52.756Z,3.00
2018-08-27T21:57:20.429Z,2.90
2018-08-27T21:59:48.201Z,3.80
2018-08-27T22:02:21.608Z,3.07
2018-08-27T22:04:49.220Z,3.03
2018-08-27T22:07:17.584Z,3.07
2018-08-27T22:09:45.181Z,3.60
2018-08-27T22:12:12.981Z,3.50
2018-08-27T22:14:40.696Z,2.93
2018-08-27T22:17:09.477Z,3.50
2018-08-27T22:19:38.289Z,2.90
2018-08-27T22:22:05.984Z,3.03
2018-08-27T22:24:33.613Z,2.63
2018-08-27T22:27:01.249Z,2.73
2018-08-27T22:29:28.885Z,3.00
2018-08-27T22:31:56.548Z,3.10
2018-08-27T22:34:24.439Z,3.40
2018-08-27T22:36:52.351Z,3.00
2018-08-27T22:39:20.595Z,3.07
2018-08-27T22:41:48.401Z,3.00
2018-08-27T22:44:16.616Z,2.70
2018-08-27T22:46:45.127Z,3.60
2018-08-27T22:49:12.848Z,3.10
2018-08-27T22:51:41.461Z,3.00
2018-08-27T22:54:09.255Z,3.17
2018-08-27T22:56:37.108Z,3.40
2018-08-27T22:59:04.895Z,3.33
2018-08-27T23:01:32.593Z,2.83
2018-08-27T23:04:05.928Z,3.47
2018-08-27T23:06:33.628Z,3.30
2018-08-27T23:09:01.415Z,3.57
2018-08-27T23:11:29.108Z,2.90
2018-08-27T23:13:56.727Z,3.20
2018-08-27T23:16:28.342Z,3.00
2018-08-27T23:18:56.076Z,3.47
2018-08-27T23:21:23.697Z,3.13
2018-08-27T23:23:51.372Z,3.10
2018-08-27T23:26:18.948Z,3.60
2018-08-27T23:28:47.269Z,3.30
2018-08-27T23:31:14.988Z,3.50
2018-08-27T23:33:42.644Z,3.00
2018-08-27T23:36:10.284Z,3.10
2018-08-27T23:38:38.926Z,3.20
2018-08-27T23:41:06.637Z,3.10
2018-08-27T23:43:34.204Z,3.17
2018-08-27T23:46:02.478Z,3.00
2018-08-27T23:48:30.115Z,3.90
2018-08-27T23:50:58.479Z,3.20
2018-08-27T23:53:26.087Z,3.63
2018-08-27T23:55:53.719Z,3.20
2018-08-27T23:58:21.604Z,2.90
